createdAt,value
2023-05-06T00:03:02.482Z,95730.00
2023-05-06T00:07:06.980Z,95727.00
2023-05-06T00:11:09.818Z,95718.00
2023-05-06T00:15:12.781Z,95720.00
2023-05-06T00:19:15.725Z,95717.00
2023-05-06T00:23:19.912Z,95714.00
2023-05-06T00:27:22.783Z,95719.00
2023-05-06T00:31:26.027Z,95710.00
2023-05-06T00:35:28.948Z,95708.00
2023-05-06T00:39:33.522Z,95718.00
2023-05-06T00:43:36.334Z,95706.00
2023-05-06T00:47:39.328Z,95699.00
2023-05-06T00:51:42.217Z,95696.00
2023-05-06T00:55:46.548Z,95690.00
2023-05-06T00:59:49.414Z,95689.00
2023-05-06T01:03:57.162Z,95685.00
2023-05-06T01:08:07.701Z,95679.00
2023-05-06T01:12:21.946Z,95693.00
2023-05-06T01:16:29.561Z,95686.00
2023-05-06T01:20:34.197Z,95695.00
2023-05-06T01:24:39.206Z,95686.00
2023-05-06T01:28:42.011Z,95680.00
2023-05-06T01:32:54.718Z,95670.00
2023-05-06T01:37:08.000Z,95675.00
2023-05-06T01:41:16.374Z,95687.00
2023-05-06T01:45:20.874Z,95687.00
2023-05-06T01:49:26.101Z,95677.00
2023-05-06T01:53:28.907Z,95688.00
2023-05-06T01:57:33.162Z,95683.00
2023-05-06T02:01:36.126Z,95686.00
2023-05-06T02:05:38.988Z,95688.00
2023-05-06T02:09:42.585Z,95692.00
2023-05-06T02:13:46.854Z,95682.00
2023-05-06T02:17:49.807Z,95695.00
2023-05-06T02:21:52.779Z,95684.00
2023-05-06T02:25:55.647Z,95694.00
2023-05-06T02:29:59.984Z,95689.00
2023-05-06T02:34:02.826Z,95686.00
2023-05-06T02:38:05.660Z,95693.00
2023-05-06T02:42:10.654Z,95675.00
2023-05-06T02:46:16.216Z,95672.00
2023-05-06T02:50:19.372Z,95663.00
2023-05-06T02:54:22.231Z,95672.00
2023-05-06T02:58:26.182Z,95678.00
2023-05-06T03:02:30.539Z,95679.00
2023-05-06T03:06:33.375Z,95674.00
2023-05-06T03:10:36.430Z,95666.00
2023-05-06T03:14:39.466Z,95659.00
2023-05-06T03:18:43.784Z,95646.00
2023-05-06T03:22:47.460Z,95647.00
2023-05-06T03:26:50.569Z,95662.00
2023-05-06T03:30:53.609Z,95652.00
2023-05-06T03:34:57.868Z,95651.00
2023-05-06T03:39:00.876Z,95653.00
2023-05-06T03:43:05.202Z,95655.00
2023-05-06T03:47:08.930Z,95644.00
2023-05-06T03:51:14.915Z,95658.00
2023-05-06T03:55:18.341Z,95642.00
2023-05-06T03:59:21.510Z,95648.00
2023-05-06T04:03:24.479Z,95647.00
2023-05-06T04:07:29.507Z,95658.00
2023-05-06T04:11:32.275Z,95667.00
2023-05-06T04:15:37.623Z,95659.00
2023-05-06T04:19:44.570Z,95662.00
2023-05-06T04:23:48.899Z,95670.00
2023-05-06T04:27:56.459Z,95672.00
2023-05-06T04:31:59.988Z,95673.00
2023-05-06T04:36:05.674Z,95675.00
2023-05-06T04:40:13.644Z,95682.00
2023-05-06T04:44:19.418Z,95685.00
2023-05-06T04:48:24.035Z,95694.00
2023-05-06T04:52:29.811Z,95693.00
2023-05-06T04:56:34.498Z,95689.00
2023-05-06T05:00:37.323Z,95699.00
2023-05-06T05:04:41.264Z,95701.00
2023-05-06T05:08:44.617Z,95701.00
2023-05-06T05:12:49.397Z,95715.00
2023-05-06T05:16:52.815Z,95720.00
2023-05-06T05:20:55.759Z,95715.00
2023-05-06T05:24:59.166Z,95715.00
2023-05-06T05:29:03.454Z,95720.00
2023-05-06T05:33:07.997Z,95722.00
2023-05-06T05:37:11.350Z,95718.00
2023-05-06T05:41:16.807Z,95717.00
2023-05-06T05:45:22.480Z,95723.00
2023-05-06T05:49:26.413Z,95721.00
2023-05-06T05:53:30.048Z,95723.00
2023-05-06T05:57:33.023Z,95725.00
2023-05-06T06:01:37.281Z,95722.00
2023-05-06T06:05:43.457Z,95727.00
2023-05-06T06:09:48.847Z,95733.00
2023-05-06T06:13:52.540Z,95746.00
2023-05-06T06:17:57.213Z,95750.00
2023-05-06T06:22:02.308Z,95749.00
2023-05-06T06:26:09.165Z,95754.00
2023-05-06T06:30:13.758Z,95759.00
2023-05-06T06:34:17.950Z,95749.00
2023-05-06T06:38:20.710Z,95757.00
2023-05-06T06:42:23.578Z,95759.00
2023-05-06T06:46:36.483Z,95765.00
2023-05-06T06:50:40.639Z,95761.00
2023-05-06T06:54:43.593Z,95766.00
2023-05-06T06:58:46.532Z,95762.00
2023-05-06T07:02:49.435Z,95768.00
2023-05-06T07:06:53.671Z,95765.00
2023-05-06T07:10:56.717Z,95772.00
2023-05-06T07:14:59.521Z,95771.00
2023-05-06T07:19:02.577Z,95778.00
2023-05-06T07:23:06.766Z,95774.00
2023-05-06T07:27:09.642Z,95784.00
2023-05-06T07:31:12.527Z,95775.00
2023-05-06T07:35:15.426Z,95777.00
2023-05-06T07:39:19.594Z,95794.00
2023-05-06T07:43:23.324Z,95795.00
2023-05-06T07:47:31.577Z,95799.00
2023-05-06T07:51:34.592Z,95807.00
2023-05-06T07:55:38.748Z,95812.00
2023-05-06T07:59:41.768Z,95819.00
2023-05-06T08:03:44.705Z,95810.00
2023-05-06T08:07:47.740Z,95815.00
2023-05-06T08:11:52.111Z,95816.00
2023-05-06T08:15:55.218Z,95815.00
2023-05-06T08:19:58.319Z,95813.00
2023-05-06T08:24:01.199Z,95819.00
2023-05-06T08:28:07.432Z,95810.00
2023-05-06T08:32:10.298Z,95828.00
2023-05-06T08:36:13.367Z,95831.00
2023-05-06T08:40:20.558Z,95831.00
2023-05-06T08:44:25.648Z,95831.00
2023-05-06T08:48:29.918Z,95821.00
2023-05-06T08:52:33.269Z,95821.00
2023-05-06T08:56:37.635Z,95824.00
2023-05-06T09:00:42.132Z,95829.00
2023-05-06T09:04:46.082Z,95821.00
2023-05-06T09:08:48.836Z,95825.00
2023-05-06T09:12:55.043Z,95819.00
2023-05-06T09:16:59.294Z,95819.00
2023-05-06T09:21:05.498Z,95818.00
2023-05-06T09:25:09.688Z,95821.00
2023-05-06T09:29:12.708Z,95826.00
2023-05-06T09:33:17.076Z,95819.00
2023-05-06T09:37:20.948Z,95827.00
2023-05-06T09:41:25.517Z,95819.00
2023-05-06T09:45:29.574Z,95817.00
2023-05-06T09:49:34.599Z,95820.00
2023-05-06T09:53:38.254Z,95822.00
2023-05-06T09:57:42.557Z,95823.00
2023-05-06T10:01:45.708Z,95821.00
2023-05-06T10:05:50.795Z,95817.00
2023-05-06T10:09:55.559Z,95812.00
2023-05-06T10:14:00.073Z,95809.00
2023-05-06T10:18:04.280Z,95815.00
2023-05-06T10:22:15.955Z,95800.00
2023-05-06T10:26:20.837Z,95803.00
2023-05-06T10:30:24.843Z,95789.00
2023-05-06T10:34:30.301Z,95783.00
2023-05-06T10:38:37.307Z,95776.00
2023-05-06T10:42:40.839Z,95780.00
2023-05-06T10:47:00.653Z,95775.00
2023-05-06T10:51:28.344Z,95779.00
2023-05-06T10:55:33.949Z,95772.00
2023-05-06T10:59:37.712Z,95758.00
2023-05-06T11:03:43.613Z,95763.00
2023-05-06T11:07:46.623Z,95763.00
2023-05-06T11:12:02.140Z,95758.00
2023-05-06T11:16:06.381Z,95748.00
2023-05-06T11:20:22.942Z,95750.00
2023-05-06T11:24:27.979Z,95755.00
2023-05-06T11:28:33.141Z,95767.00
2023-05-06T11:32:36.152Z,95756.00
2023-05-06T11:36:47.153Z,95757.00
2023-05-06T11:40:50.341Z,95760.00
2023-05-06T11:44:56.789Z,95755.00
2023-05-06T11:48:59.898Z,95750.00
2023-05-06T11:53:03.391Z,95749.00
2023-05-06T11:57:06.434Z,95749.00
2023-05-06T12:01:10.915Z,95752.00
2023-05-06T12:05:13.868Z,95751.00
2023-05-06T12:09:16.933Z,95750.00
2023-05-06T12:13:20.238Z,95746.00
2023-05-06T12:17:24.923Z,95748.00
2023-05-06T12:21:28.473Z,95746.00
2023-05-06T12:25:31.435Z,95736.00
2023-05-06T12:29:34.208Z,95734.00
2023-05-06T12:33:48.824Z,95734.00
2023-05-06T12:37:51.645Z,95743.00
2023-05-06T12:41:54.484Z,95739.00
2023-05-06T12:46:05.143Z,95732.00
2023-05-06T12:50:10.538Z,95735.00
2023-05-06T12:54:31.567Z,95743.00
2023-05-06T12:58:37.629Z,95739.00
2023-05-06T13:02:41.148Z,95731.00
2023-05-06T13:06:45.448Z,95721.00
2023-05-06T13:10:48.331Z,95725.00
2023-05-06T13:14:51.160Z,95719.00
2023-05-06T13:18:53.999Z,95705.00
2023-05-06T13:22:58.213Z,95708.00
2023-05-06T13:27:01.439Z,95710.00
2023-05-06T13:31:04.807Z,95704.00
2023-05-06T13:35:08.405Z,95709.00
2023-05-06T13:39:12.935Z,95697.00
2023-05-06T13:43:16.487Z,95694.00
2023-05-06T13:47:19.417Z,95686.00
2023-05-06T13:51:22.345Z,95687.00
2023-05-06T13:55:26.691Z,95682.00
2023-05-06T13:59:29.461Z,95682.00
2023-05-06T14:03:32.755Z,95685.00
2023-05-06T14:07:35.559Z,95687.00
2023-05-06T14:11:39.768Z,95679.00
2023-05-06T14:15:42.621Z,95681.00
2023-05-06T14:19:45.904Z,95667.00
2023-05-06T14:23:48.722Z,95674.00
2023-05-06T14:27:52.885Z,95662.00
2023-05-06T14:31:55.856Z,95658.00
2023-05-06T14:35:58.702Z,95660.00
2023-05-06T14:40:01.479Z,95668.00
2023-05-06T14:44:06.125Z,95668.00
2023-05-06T14:48:08.996Z,95666.00
2023-05-06T14:52:11.815Z,95656.00
2023-05-06T14:56:14.621Z,95652.00
2023-05-06T15:00:20.531Z,95647.00
2023-05-06T15:04:23.433Z,95648.00
2023-05-06T15:08:26.328Z,95647.00
2023-05-06T15:12:29.318Z,95640.00
2023-05-06T15:16:33.580Z,95642.00
2023-05-06T15:20:37.497Z,95643.00
2023-05-06T15:24:40.526Z,95640.00
2023-05-06T15:28:43.396Z,95641.00
2023-05-06T15:32:49.010Z,95644.00
2023-05-06T15:36:53.602Z,95652.00
2023-05-06T15:40:56.459Z,95653.00
2023-05-06T15:44:59.475Z,95653.00
2023-05-06T15:49:29.488Z,95653.00
2023-05-06T15:53:26.798Z,95654.00
2023-05-06T15:57:31.147Z,95646.00
2023-05-06T16:02:08.440Z,95647.00
2023-05-06T16:06:00.310Z,95652.00
2023-05-06T16:10:03.362Z,95655.00
2023-05-06T16:14:06.217Z,95645.00
2023-05-06T16:18:09.161Z,95646.00
2023-05-06T16:22:13.349Z,95636.00
2023-05-06T16:26:16.672Z,95639.00
2023-05-06T16:30:19.553Z,95636.00
2023-05-06T16:34:22.328Z,95637.00
2023-05-06T16:38:26.472Z,95643.00
2023-05-06T16:42:29.289Z,95642.00
2023-05-06T16:46:33.145Z,95638.00
2023-05-06T16:50:35.899Z,95637.00
2023-05-06T16:54:40.013Z,95629.00
2023-05-06T16:58:43.377Z,95625.00
2023-05-06T17:02:46.212Z,95625.00
2023-05-06T17:06:49.016Z,95621.00
2023-05-06T17:10:53.211Z,95615.00
2023-05-06T17:14:56.057Z,95625.00
2023-05-06T17:18:58.856Z,95617.00
2023-05-06T17:23:01.679Z,95625.00
2023-05-06T17:27:05.913Z,95623.00
2023-05-06T17:31:09.205Z,95619.00
2023-05-06T17:35:12.123Z,95619.00
2023-05-06T17:39:15.224Z,95622.00
2023-05-06T17:43:19.391Z,95621.00
2023-05-06T17:47:22.801Z,95626.00
2023-05-06T17:51:26.706Z,95634.00
2023-05-06T17:55:29.527Z,95633.00
2023-05-06T17:59:33.765Z,95633.00
2023-05-06T18:03:36.731Z,95625.00
2023-05-06T18:07:39.762Z,95642.00
2023-05-06T18:11:42.640Z,95639.00
2023-05-06T18:15:46.795Z,95635.00
2023-05-06T18:19:49.796Z,95642.00
2023-05-06T18:23:58.689Z,95639.00
2023-05-06T18:28:05.590Z,95633.00
2023-05-06T18:32:09.944Z,95639.00
2023-05-06T18:36:13.426Z,95637.00
2023-05-06T18:40:16.439Z,95647.00
2023-05-06T18:44:19.221Z,95644.00
2023-05-06T18:48:23.464Z,95640.00
2023-05-06T18:52:26.315Z,95653.00
2023-05-06T18:56:29.150Z,95650.00
2023-05-06T19:00:32.288Z,95654.00
2023-05-06T19:04:36.783Z,95653.00
2023-05-06T19:08:39.771Z,95652.00
2023-05-06T19:12:42.656Z,95660.00
2023-05-06T19:16:45.532Z,95655.00
2023-05-06T19:20:49.674Z,95653.00
2023-05-06T19:24:52.786Z,95655.00
2023-05-06T19:28:55.731Z,95654.00
2023-05-06T19:32:59.005Z,95655.00
2023-05-06T19:37:03.270Z,95658.00
2023-05-06T19:41:07.134Z,95661.00
2023-05-06T19:45:10.790Z,95668.00
2023-05-06T19:49:13.796Z,95664.00
2023-05-06T19:53:18.515Z,95664.00
2023-05-06T19:57:21.361Z,95669.00
2023-05-06T20:01:24.808Z,95670.00
2023-05-06T20:05:29.598Z,95665.00
2023-05-06T20:09:33.757Z,95660.00
2023-05-06T20:13:36.580Z,95656.00
2023-05-06T20:17:39.508Z,95657.00
2023-05-06T20:21:42.365Z,95648.00
2023-05-06T20:25:46.524Z,95652.00
2023-05-06T20:29:51.550Z,95646.00
2023-05-06T20:33:54.486Z,95653.00
2023-05-06T20:37:57.249Z,95653.00
2023-05-06T20:42:01.686Z,95654.00
2023-05-06T20:46:05.411Z,95659.00
2023-05-06T20:50:08.776Z,95659.00
2023-05-06T20:54:11.554Z,95659.00
2023-05-06T20:58:15.733Z,95659.00
2023-05-06T21:02:18.563Z,95654.00
2023-05-06T21:06:21.379Z,95646.00
2023-05-06T21:10:24.225Z,95641.00
2023-05-06T21:14:28.573Z,95630.00
2023-05-06T21:18:31.498Z,95640.00
2023-05-06T21:22:34.384Z,95652.00
2023-05-06T21:26:37.328Z,95644.00
2023-05-06T21:30:41.583Z,95651.00
2023-05-06T21:34:44.520Z,95653.00
2023-05-06T21:38:48.450Z,95645.00
2023-05-06T21:42:51.305Z,95642.00
2023-05-06T21:46:55.633Z,95647.00
2023-05-06T21:51:00.280Z,95653.00
2023-05-06T21:55:03.159Z,95656.00
2023-05-06T21:59:07.818Z,95651.00
2023-05-06T22:03:12.533Z,95648.00
2023-05-06T22:07:16.420Z,95641.00
2023-05-06T22:11:19.234Z,95649.00
2023-05-06T22:15:22.006Z,95653.00
2023-05-06T22:19:26.551Z,95647.00
2023-05-06T22:23:29.382Z,95637.00
2023-05-06T22:27:32.134Z,95635.00
2023-05-06T22:31:34.983Z,95636.00
2023-05-06T22:35:39.215Z,95618.00
2023-05-06T22:39:42.104Z,95625.00
2023-05-06T22:43:44.893Z,95618.00
2023-05-06T22:47:47.670Z,95626.00
2023-05-06T22:51:52.121Z,95613.00
2023-05-06T22:55:55.007Z,95618.00
2023-05-06T22:59:57.780Z,95609.00
2023-05-06T23:04:00.800Z,95605.00
2023-05-06T23:08:05.098Z,95610.00
2023-05-06T23:12:08.009Z,95614.00
2023-05-06T23:16:10.854Z,95601.00
2023-05-06T23:20:13.775Z,95605.00
2023-05-06T23:24:17.924Z,95595.00
2023-05-06T23:28:20.944Z,95604.00
2023-05-06T23:32:23.716Z,95611.00
2023-05-06T23:36:27.250Z,95605.00
2023-05-06T23:40:31.429Z,95600.00
2023-05-06T23:44:34.239Z,95595.00
2023-05-06T23:48:38.430Z,95603.00
2023-05-06T23:52:41.237Z,95605.00
2023-05-06T23:56:45.436Z,95602.00
